sensor_id;sensor_type;location;lat;lon;timestamp;P1;durP1;ratioP1;P2;durP2;ratioP2
41446;SDS011;27185;52.040;4.490;2022-08-21T00:00:25;9.40;;;1.92;;
41446;SDS011;27185;52.040;4.490;2022-08-21T00:03:12;9.50;;;2.47;;
41446;SDS011;27185;52.040;4.490;2022-08-21T00:05:57;5.07;;;1.70;;
41446;SDS011;27185;52.040;4.490;2022-08-21T00:08:43;6.72;;;2.00;;
41446;SDS011;27185;52.040;4.490;2022-08-21T00:11:29;5.38;;;2.40;;
41446;SDS011;27185;52.040;4.490;2022-08-21T00:14:14;7.13;;;2.53;;
41446;SDS011;27185;52.040;4.490;2022-08-21T00:17:00;7.10;;;2.13;;
41446;SDS011;27185;52.040;4.490;2022-08-21T00:19:46;6.43;;;2.45;;
41446;SDS011;27185;52.040;4.490;2022-08-21T00:22:32;10.43;;;2.85;;
41446;SDS011;27185;52.040;4.490;2022-08-21T00:25:17;9.30;;;2.70;;
41446;SDS011;27185;52.040;4.490;2022-08-21T00:28:04;8.25;;;2.95;;
41446;SDS011;27185;52.040;4.490;2022-08-21T00:30:51;6.47;;;2.53;;
41446;SDS011;27185;52.040;4.490;2022-08-21T00:33:37;6.28;;;1.95;;
41446;SDS011;27185;52.040;4.490;2022-08-21T00:36:22;6.82;;;2.00;;
41446;SDS011;27185;52.040;4.490;2022-08-21T00:39:08;6.63;;;1.83;;
41446;SDS011;27185;52.040;4.490;2022-08-21T00:41:54;6.65;;;2.00;;
41446;SDS011;27185;52.040;4.490;2022-08-21T00:44:43;7.53;;;2.15;;
41446;SDS011;27185;52.040;4.490;2022-08-21T00:47:32;7.18;;;1.92;;
41446;SDS011;27185;52.040;4.490;2022-08-21T00:50:19;7.32;;;1.77;;
41446;SDS011;27185;52.040;4.490;2022-08-21T00:53:05;8.70;;;1.60;;
41446;SDS011;27185;52.040;4.490;2022-08-21T00:55:52;7.07;;;1.90;;
41446;SDS011;27185;52.040;4.490;2022-08-21T00:58:39;9.38;;;1.70;;
41446;SDS011;27185;52.040;4.490;2022-08-21T01:01:27;12.02;;;2.30;;
41446;SDS011;27185;52.040;4.490;2022-08-21T01:04:13;6.50;;;1.40;;
41446;SDS011;27185;52.040;4.490;2022-08-21T01:07:01;8.23;;;1.58;;
41446;SDS011;27185;52.040;4.490;2022-08-21T01:09:47;10.05;;;2.30;;
41446;SDS011;27185;52.040;4.490;2022-08-21T01:12:33;11.18;;;1.70;;
41446;SDS011;27185;52.040;4.490;2022-08-21T01:15:19;5.10;;;1.40;;
41446;SDS011;27185;52.040;4.490;2022-08-21T01:18:10;5.70;;;1.48;;
41446;SDS011;27185;52.040;4.490;2022-08-21T01:23:54;9.63;;;1.52;;
41446;SDS011;27185;52.040;4.490;2022-08-21T01:26:41;8.23;;;1.30;;
41446;SDS011;27185;52.040;4.490;2022-08-21T01:32:23;6.97;;;1.60;;
41446;SDS011;27185;52.040;4.490;2022-08-21T01:35:10;7.40;;;1.50;;
41446;SDS011;27185;52.040;4.490;2022-08-21T01:37:56;8.95;;;1.75;;
41446;SDS011;27185;52.040;4.490;2022-08-21T01:40:42;6.28;;;1.85;;
41446;SDS011;27185;52.040;4.490;2022-08-21T01:43:27;7.95;;;1.75;;
41446;SDS011;27185;52.040;4.490;2022-08-21T01:46:13;6.38;;;1.50;;
41446;SDS011;27185;52.040;4.490;2022-08-21T01:48:59;7.07;;;1.77;;
41446;SDS011;27185;52.040;4.490;2022-08-21T01:51:45;6.55;;;1.55;;
41446;SDS011;27185;52.040;4.490;2022-08-21T01:54:31;5.60;;;1.60;;
41446;SDS011;27185;52.040;4.490;2022-08-21T01:57:17;7.22;;;1.38;;
41446;SDS011;27185;52.040;4.490;2022-08-21T02:00:06;5.03;;;0.98;;
41446;SDS011;27185;52.040;4.490;2022-08-21T02:02:55;5.75;;;1.20;;
41446;SDS011;27185;52.040;4.490;2022-08-21T02:05:41;6.72;;;1.40;;
41446;SDS011;27185;52.040;4.490;2022-08-21T02:08:27;6.30;;;1.65;;
41446;SDS011;27185;52.040;4.490;2022-08-21T02:11:13;4.22;;;1.40;;
41446;SDS011;27185;52.040;4.490;2022-08-21T02:13:59;6.60;;;1.38;;
41446;SDS011;27185;52.040;4.490;2022-08-21T02:16:45;5.93;;;1.48;;
41446;SDS011;27185;52.040;4.490;2022-08-21T02:19:31;9.38;;;2.03;;
41446;SDS011;27185;52.040;4.490;2022-08-21T02:22:17;6.93;;;1.70;;
41446;SDS011;27185;52.040;4.490;2022-08-21T02:25:03;5.22;;;1.35;;
41446;SDS011;27185;52.040;4.490;2022-08-21T02:27:49;6.10;;;1.52;;
41446;SDS011;27185;52.040;4.490;2022-08-21T02:30:36;9.52;;;1.77;;
41446;SDS011;27185;52.040;4.490;2022-08-21T02:33:24;6.70;;;1.75;;
41446;SDS011;27185;52.040;4.490;2022-08-21T02:36:11;5.32;;;1.70;;
41446;SDS011;27185;52.040;4.490;2022-08-21T02:38:56;9.45;;;2.15;;
41446;SDS011;27185;52.040;4.490;2022-08-21T02:41:42;7.28;;;1.83;;
41446;SDS011;27185;52.040;4.490;2022-08-21T02:44:28;9.00;;;2.42;;
41446;SDS011;27185;52.040;4.490;2022-08-21T02:47:14;10.88;;;2.90;;
41446;SDS011;27185;52.040;4.490;2022-08-21T02:49:59;8.10;;;2.67;;
41446;SDS011;27185;52.040;4.490;2022-08-21T02:52:45;6.53;;;2.38;;
41446;SDS011;27185;52.040;4.490;2022-08-21T02:55:31;7.28;;;2.85;;
41446;SDS011;27185;52.040;4.490;2022-08-21T02:58:25;11.07;;;2.78;;
41446;SDS011;27185;52.040;4.490;2022-08-21T03:01:13;8.48;;;2.50;;
41446;SDS011;27185;52.040;4.490;2022-08-21T03:03:59;7.50;;;2.50;;
41446;SDS011;27185;52.040;4.490;2022-08-21T03:06:44;7.97;;;2.40;;
41446;SDS011;27185;52.040;4.490;2022-08-21T03:09:30;7.55;;;2.38;;
41446;SDS011;27185;52.040;4.490;2022-08-21T03:12:16;11.48;;;2.80;;
41446;SDS011;27185;52.040;4.490;2022-08-21T03:15:03;9.38;;;2.97;;
41446;SDS011;27185;52.040;4.490;2022-08-21T03:17:51;8.07;;;2.88;;
41446;SDS011;27185;52.040;4.490;2022-08-21T03:23:25;8.73;;;2.38;;
41446;SDS011;27185;52.040;4.490;2022-08-21T03:26:11;9.60;;;2.72;;
41446;SDS011;27185;52.040;4.490;2022-08-21T03:28:57;8.52;;;2.83;;
41446;SDS011;27185;52.040;4.490;2022-08-21T03:31:42;7.50;;;2.60;;
41446;SDS011;27185;52.040;4.490;2022-08-21T03:34:28;6.03;;;1.92;;
41446;SDS011;27185;52.040;4.490;2022-08-21T03:37:14;9.52;;;2.50;;
41446;SDS011;27185;52.040;4.490;2022-08-21T03:40:00;9.18;;;2.53;;
41446;SDS011;27185;52.040;4.490;2022-08-21T03:42:46;8.07;;;2.53;;
41446;SDS011;27185;52.040;4.490;2022-08-21T03:45:32;5.70;;;2.25;;
41446;SDS011;27185;52.040;4.490;2022-08-21T03:48:17;6.22;;;2.40;;
41446;SDS011;27185;52.040;4.490;2022-08-21T03:51:03;8.98;;;2.08;;
41446;SDS011;27185;52.040;4.490;2022-08-21T03:53:50;7.18;;;2.13;;
41446;SDS011;27185;52.040;4.490;2022-08-21T03:56:36;5.88;;;1.80;;
41446;SDS011;27185;52.040;4.490;2022-08-21T03:59:22;9.40;;;2.20;;
41446;SDS011;27185;52.040;4.490;2022-08-21T04:02:08;8.23;;;2.00;;
41446;SDS011;27185;52.040;4.490;2022-08-21T04:04:54;4.95;;;1.75;;
41446;SDS011;27185;52.040;4.490;2022-08-21T04:07:39;8.15;;;2.08;;
41446;SDS011;27185;52.040;4.490;2022-08-21T04:10:26;6.20;;;2.60;;
41446;SDS011;27185;52.040;4.490;2022-08-21T04:13:13;7.30;;;2.17;;
41446;SDS011;27185;52.040;4.490;2022-08-21T04:15:59;12.52;;;2.28;;
41446;SDS011;27185;52.040;4.490;2022-08-21T04:18:45;7.68;;;2.60;;
41446;SDS011;27185;52.040;4.490;2022-08-21T04:21:30;4.45;;;1.75;;
41446;SDS011;27185;52.040;4.490;2022-08-21T04:24:16;6.15;;;1.58;;
41446;SDS011;27185;52.040;4.490;2022-08-21T04:27:02;7.72;;;1.70;;
41446;SDS011;27185;52.040;4.490;2022-08-21T04:29:48;7.20;;;1.92;;
41446;SDS011;27185;52.040;4.490;2022-08-21T04:32:33;8.57;;;2.00;;
41446;SDS011;27185;52.040;4.490;2022-08-21T04:35:21;6.18;;;1.92;;
41446;SDS011;27185;52.040;4.490;2022-08-21T04:40:53;8.52;;;1.92;;
41446;SDS011;27185;52.040;4.490;2022-08-21T04:43:39;9.48;;;2.28;;
41446;SDS011;27185;52.040;4.490;2022-08-21T04:46:24;5.88;;;1.63;;
41446;SDS011;27185;52.040;4.490;2022-08-21T04:49:10;8.45;;;2.45;;
41446;SDS011;27185;52.040;4.490;2022-08-21T04:51:55;11.98;;;2.25;;
41446;SDS011;27185;52.040;4.490;2022-08-21T04:54:41;7.55;;;1.85;;
41446;SDS011;27185;52.040;4.490;2022-08-21T04:57:30;7.53;;;2.60;;
41446;SDS011;27185;52.040;4.490;2022-08-21T05:00:16;13.63;;;3.13;;
41446;SDS011;27185;52.040;4.490;2022-08-21T05:03:03;10.35;;;2.78;;
41446;SDS011;27185;52.040;4.490;2022-08-21T05:05:51;8.82;;;2.20;;
41446;SDS011;27185;52.040;4.490;2022-08-21T05:08:37;8.90;;;2.67;;
41446;SDS011;27185;52.040;4.490;2022-08-21T05:11:24;7.80;;;2.75;;
41446;SDS011;27185;52.040;4.490;2022-08-21T05:14:11;10.45;;;2.83;;
41446;SDS011;27185;52.040;4.490;2022-08-21T05:16:57;14.38;;;2.83;;
41446;SDS011;27185;52.040;4.490;2022-08-21T05:19:43;12.50;;;3.20;;
41446;SDS011;27185;52.040;4.490;2022-08-21T05:22:29;16.10;;;4.57;;
41446;SDS011;27185;52.040;4.490;2022-08-21T05:25:15;14.82;;;4.82;;
41446;SDS011;27185;52.040;4.490;2022-08-21T05:28:01;16.08;;;5.05;;
41446;SDS011;27185;52.040;4.490;2022-08-21T05:30:47;12.13;;;4.75;;
41446;SDS011;27185;52.040;4.490;2022-08-21T05:33:33;12.38;;;4.35;;
41446;SDS011;27185;52.040;4.490;2022-08-21T05:36:18;14.82;;;4.75;;
41446;SDS011;27185;52.040;4.490;2022-08-21T05:39:04;12.43;;;4.53;;
41446;SDS011;27185;52.040;4.490;2022-08-21T05:41:49;12.77;;;5.50;;
41446;SDS011;27185;52.040;4.490;2022-08-21T05:44:35;13.07;;;4.82;;
41446;SDS011;27185;52.040;4.490;2022-08-21T05:47:21;16.52;;;4.88;;
41446;SDS011;27185;52.040;4.490;2022-08-21T05:50:06;11.02;;;4.97;;
41446;SDS011;27185;52.040;4.490;2022-08-21T05:52:52;12.45;;;5.13;;
41446;SDS011;27185;52.040;4.490;2022-08-21T05:55:38;16.48;;;6.03;;
41446;SDS011;27185;52.040;4.490;2022-08-21T05:58:24;16.55;;;5.45;;
41446;SDS011;27185;52.040;4.490;2022-08-21T06:01:10;15.10;;;4.03;;
41446;SDS011;27185;52.040;4.490;2022-08-21T06:03:56;16.73;;;4.78;;
41446;SDS011;27185;52.040;4.490;2022-08-21T06:06:41;11.77;;;4.53;;
41446;SDS011;27185;52.040;4.490;2022-08-21T06:09:27;17.90;;;4.35;;
41446;SDS011;27185;52.040;4.490;2022-08-21T06:12:13;12.63;;;4.15;;
41446;SDS011;27185;52.040;4.490;2022-08-21T06:14:58;11.15;;;3.80;;
41446;SDS011;27185;52.040;4.490;2022-08-21T06:17:44;12.50;;;3.35;;
41446;SDS011;27185;52.040;4.490;2022-08-21T06:20:29;12.32;;;3.97;;
41446;SDS011;27185;52.040;4.490;2022-08-21T06:23:16;11.98;;;3.95;;
41446;SDS011;27185;52.040;4.490;2022-08-21T06:26:02;13.90;;;3.97;;
41446;SDS011;27185;52.040;4.490;2022-08-21T06:28:49;17.48;;;3.90;;
41446;SDS011;27185;52.040;4.490;2022-08-21T06:31:35;11.95;;;4.40;;
41446;SDS011;27185;52.040;4.490;2022-08-21T06:34:20;14.35;;;4.50;;
41446;SDS011;27185;52.040;4.490;2022-08-21T06:37:06;12.23;;;4.43;;
41446;SDS011;27185;52.040;4.490;2022-08-21T06:39:52;16.40;;;5.07;;
41446;SDS011;27185;52.040;4.490;2022-08-21T06:42:38;17.27;;;4.70;;
41446;SDS011;27185;52.040;4.490;2022-08-21T06:45:24;16.63;;;4.35;;
41446;SDS011;27185;52.040;4.490;2022-08-21T06:48:10;17.00;;;4.85;;
41446;SDS011;27185;52.040;4.490;2022-08-21T06:50:56;13.80;;;4.53;;
41446;SDS011;27185;52.040;4.490;2022-08-21T06:53:41;16.33;;;4.32;;
41446;SDS011;27185;52.040;4.490;2022-08-21T06:56:27;22.13;;;4.80;;
41446;SDS011;27185;52.040;4.490;2022-08-21T06:59:12;12.95;;;4.13;;
41446;SDS011;27185;52.040;4.490;2022-08-21T07:01:58;13.20;;;3.35;;
41446;SDS011;27185;52.040;4.490;2022-08-21T07:04:44;17.95;;;4.20;;
41446;SDS011;27185;52.040;4.490;2022-08-21T07:07:30;16.77;;;3.80;;
41446;SDS011;27185;52.040;4.490;2022-08-21T07:10:15;12.23;;;3.60;;
41446;SDS011;27185;52.040;4.490;2022-08-21T07:13:01;11.73;;;3.65;;
41446;SDS011;27185;52.040;4.490;2022-08-21T07:15:47;16.45;;;3.47;;
41446;SDS011;27185;52.040;4.490;2022-08-21T07:18:32;13.73;;;3.53;;
41446;SDS011;27185;52.040;4.490;2022-08-21T07:21:18;18.85;;;3.65;;
41446;SDS011;27185;52.040;4.490;2022-08-21T07:24:03;15.80;;;3.67;;
41446;SDS011;27185;52.040;4.490;2022-08-21T07:26:49;12.50;;;2.70;;
41446;SDS011;27185;52.040;4.490;2022-08-21T07:29:35;10.18;;;3.20;;
41446;SDS011;27185;52.040;4.490;2022-08-21T07:32:20;11.82;;;2.80;;
41446;SDS011;27185;52.040;4.490;2022-08-21T07:35:06;17.67;;;3.83;;
41446;SDS011;27185;52.040;4.490;2022-08-21T07:37:52;12.88;;;3.38;;
41446;SDS011;27185;52.040;4.490;2022-08-21T07:40:37;8.65;;;3.70;;
41446;SDS011;27185;52.040;4.490;2022-08-21T07:43:23;13.65;;;2.95;;
41446;SDS011;27185;52.040;4.490;2022-08-21T07:46:10;16.50;;;3.83;;
41446;SDS011;27185;52.040;4.490;2022-08-21T07:48:56;13.05;;;3.33;;
41446;SDS011;27185;52.040;4.490;2022-08-21T07:51:41;13.57;;;3.55;;
41446;SDS011;27185;52.040;4.490;2022-08-21T07:54:27;14.55;;;3.90;;
41446;SDS011;27185;52.040;4.490;2022-08-21T07:57:12;14.02;;;3.95;;
41446;SDS011;27185;52.040;4.490;2022-08-21T07:59:58;15.20;;;3.70;;
41446;SDS011;27185;52.040;4.490;2022-08-21T08:02:44;11.65;;;3.72;;
41446;SDS011;27185;52.040;4.490;2022-08-21T08:05:31;12.73;;;3.13;;
41446;SDS011;27185;52.040;4.490;2022-08-21T08:08:17;13.70;;;3.35;;
41446;SDS011;27185;52.040;4.490;2022-08-21T08:11:03;13.07;;;3.08;;
41446;SDS011;27185;52.040;4.490;2022-08-21T08:13:50;8.40;;;2.17;;
41446;SDS011;27185;52.040;4.490;2022-08-21T08:19:22;11.77;;;3.13;;
41446;SDS011;27185;52.040;4.490;2022-08-21T08:22:15;7.60;;;2.50;;
41446;SDS011;27185;52.040;4.490;2022-08-21T08:25:04;10.95;;;2.50;;
41446;SDS011;27185;52.040;4.490;2022-08-21T08:27:51;15.60;;;2.85;;
41446;SDS011;27185;52.040;4.490;2022-08-21T08:30:37;13.43;;;2.67;;
41446;SDS011;27185;52.040;4.490;2022-08-21T08:33:23;12.70;;;2.80;;
41446;SDS011;27185;52.040;4.490;2022-08-21T08:36:12;11.15;;;2.15;;
41446;SDS011;27185;52.040;4.490;2022-08-21T08:39:02;8.68;;;2.00;;
41446;SDS011;27185;52.040;4.490;2022-08-21T08:41:49;7.30;;;1.52;;
41446;SDS011;27185;52.040;4.490;2022-08-21T08:44:41;8.93;;;1.75;;
41446;SDS011;27185;52.040;4.490;2022-08-21T08:47:31;11.02;;;1.85;;
41446;SDS011;27185;52.040;4.490;2022-08-21T08:51:06;9.27;;;2.25;;
41446;SDS011;27185;52.040;4.490;2022-08-21T08:53:35;12.27;;;1.80;;
41446;SDS011;27185;52.040;4.490;2022-08-21T08:56:31;8.00;;;2.07;;
41446;SDS011;27185;52.040;4.490;2022-08-21T08:59:19;7.75;;;2.20;;
41446;SDS011;27185;52.040;4.490;2022-08-21T09:02:08;9.57;;;2.05;;
41446;SDS011;27185;52.040;4.490;2022-08-21T09:04:58;7.10;;;1.27;;
41446;SDS011;27185;52.040;4.490;2022-08-21T09:07:48;6.30;;;1.08;;
41446;SDS011;27185;52.040;4.490;2022-08-21T09:24:02;6.45;;;0.90;;
41446;SDS011;27185;52.040;4.490;2022-08-21T09:27:12;7.95;;;1.13;;
41446;SDS011;27185;52.040;4.490;2022-08-21T09:29:59;5.93;;;1.27;;
41446;SDS011;27185;52.040;4.490;2022-08-21T09:32:45;6.55;;;1.08;;
41446;SDS011;27185;52.040;4.490;2022-08-21T09:35:30;6.78;;;1.58;;
41446;SDS011;27185;52.040;4.490;2022-08-21T09:38:24;10.55;;;1.20;;
41446;SDS011;27185;52.040;4.490;2022-08-21T09:41:13;9.67;;;1.03;;
41446;SDS011;27185;52.040;4.490;2022-08-21T09:43:59;6.20;;;1.02;;
41446;SDS011;27185;52.040;4.490;2022-08-21T09:46:51;6.07;;;1.30;;
41446;SDS011;27185;52.040;4.490;2022-08-21T09:49:38;5.75;;;1.30;;
41446;SDS011;27185;52.040;4.490;2022-08-21T09:52:25;4.43;;;1.20;;
41446;SDS011;27185;52.040;4.490;2022-08-21T09:55:16;7.65;;;1.40;;
41446;SDS011;27185;52.040;4.490;2022-08-21T09:58:34;5.55;;;1.40;;
41446;SDS011;27185;52.040;4.490;2022-08-21T10:01:24;10.95;;;1.58;;
41446;SDS011;27185;52.040;4.490;2022-08-21T10:04:10;5.22;;;1.10;;
41446;SDS011;27185;52.040;4.490;2022-08-21T10:07:12;7.97;;;1.13;;
41446;SDS011;27185;52.040;4.490;2022-08-21T10:19:01;7.78;;;1.42;;
41446;SDS011;27185;52.040;4.490;2022-08-21T10:22:02;5.25;;;1.13;;
41446;SDS011;27185;52.040;4.490;2022-08-21T10:25:02;6.63;;;1.55;;
41446;SDS011;27185;52.040;4.490;2022-08-21T10:31:18;10.25;;;1.27;;
41446;SDS011;27185;52.040;4.490;2022-08-21T10:43:45;4.78;;;0.90;;
41446;SDS011;27185;52.040;4.490;2022-08-21T10:50:03;6.32;;;1.20;;
41446;SDS011;27185;52.040;4.490;2022-08-21T10:56:18;7.80;;;1.17;;
41446;SDS011;27185;52.040;4.490;2022-08-21T10:59:15;4.63;;;0.82;;
41446;SDS011;27185;52.040;4.490;2022-08-21T11:02:19;6.22;;;1.00;;
41446;SDS011;27185;52.040;4.490;2022-08-21T11:05:12;6.50;;;1.02;;
41446;SDS011;27185;52.040;4.490;2022-08-21T11:08:03;5.68;;;0.90;;
41446;SDS011;27185;52.040;4.490;2022-08-21T11:13:55;6.75;;;1.10;;
41446;SDS011;27185;52.040;4.490;2022-08-21T11:16:45;3.65;;;0.70;;
41446;SDS011;27185;52.040;4.490;2022-08-21T11:22:38;8.30;;;0.98;;
41446;SDS011;27185;52.040;4.490;2022-08-21T11:31:36;4.80;;;0.85;;
41446;SDS011;27185;52.040;4.490;2022-08-21T11:44:19;5.55;;;0.80;;
41446;SDS011;27185;52.040;4.490;2022-08-21T11:50:28;6.05;;;0.70;;
41446;SDS011;27185;52.040;4.490;2022-08-21T11:53:26;5.05;;;0.80;;
41446;SDS011;27185;52.040;4.490;2022-08-21T11:56:37;4.93;;;0.70;;
41446;SDS011;27185;52.040;4.490;2022-08-21T11:59:35;6.10;;;0.88;;
41446;SDS011;27185;52.040;4.490;2022-08-21T12:02:28;10.05;;;0.98;;
41446;SDS011;27185;52.040;4.490;2022-08-21T12:05:25;3.75;;;0.60;;
41446;SDS011;27185;52.040;4.490;2022-08-21T12:08:26;4.30;;;0.70;;
41446;SDS011;27185;52.040;4.490;2022-08-21T12:16:51;5.13;;;0.60;;
41446;SDS011;27185;52.040;4.490;2022-08-21T12:19:57;3.08;;;0.50;;
41446;SDS011;27185;52.040;4.490;2022-08-21T12:22:49;4.45;;;0.50;;
41446;SDS011;27185;52.040;4.490;2022-08-21T12:25:42;4.85;;;0.70;;
41446;SDS011;27185;52.040;4.490;2022-08-21T12:28:31;5.22;;;0.57;;
41446;SDS011;27185;52.040;4.490;2022-08-21T12:31:18;4.90;;;0.77;;
41446;SDS011;27185;52.040;4.490;2022-08-21T12:34:05;6.18;;;0.63;;
41446;SDS011;27185;52.040;4.490;2022-08-21T12:36:58;2.83;;;0.55;;
41446;SDS011;27185;52.040;4.490;2022-08-21T12:39:48;6.25;;;0.60;;
41446;SDS011;27185;52.040;4.490;2022-08-21T12:42:38;3.42;;;0.60;;
41446;SDS011;27185;52.040;4.490;2022-08-21T12:45:30;6.65;;;0.57;;
41446;SDS011;27185;52.040;4.490;2022-08-21T12:51:15;11.57;;;0.70;;
41446;SDS011;27185;52.040;4.490;2022-08-21T12:54:03;6.30;;;0.80;;
41446;SDS011;27185;52.040;4.490;2022-08-21T12:56:55;5.95;;;0.82;;
41446;SDS011;27185;52.040;4.490;2022-08-21T12:59:43;4.13;;;0.60;;
41446;SDS011;27185;52.040;4.490;2022-08-21T13:02:32;5.38;;;0.68;;
41446;SDS011;27185;52.040;4.490;2022-08-21T13:08:19;4.15;;;0.50;;
41446;SDS011;27185;52.040;4.490;2022-08-21T13:11:06;4.75;;;0.70;;
41446;SDS011;27185;52.040;4.490;2022-08-21T13:13:52;4.50;;;1.00;;
41446;SDS011;27185;52.040;4.490;2022-08-21T13:16:38;4.23;;;0.60;;
41446;SDS011;27185;52.040;4.490;2022-08-21T13:19:25;3.00;;;0.70;;
41446;SDS011;27185;52.040;4.490;2022-08-21T13:22:12;4.30;;;0.60;;
41446;SDS011;27185;52.040;4.490;2022-08-21T13:24:59;5.65;;;0.70;;
41446;SDS011;27185;52.040;4.490;2022-08-21T13:27:55;3.50;;;0.65;;
41446;SDS011;27185;52.040;4.490;2022-08-21T13:30:54;4.15;;;0.50;;
41446;SDS011;27185;52.040;4.490;2022-08-21T13:33:40;7.03;;;0.85;;
41446;SDS011;27185;52.040;4.490;2022-08-21T13:36:29;4.18;;;0.75;;
41446;SDS011;27185;52.040;4.490;2022-08-21T13:39:19;3.15;;;0.50;;
41446;SDS011;27185;52.040;4.490;2022-08-21T13:42:09;5.83;;;1.03;;
41446;SDS011;27185;52.040;4.490;2022-08-21T13:44:57;4.53;;;0.60;;
41446;SDS011;27185;52.040;4.490;2022-08-21T13:47:43;3.30;;;0.60;;
41446;SDS011;27185;52.040;4.490;2022-08-21T13:50:32;4.80;;;0.80;;
41446;SDS011;27185;52.040;4.490;2022-08-21T13:53:22;4.20;;;0.70;;
41446;SDS011;27185;52.040;4.490;2022-08-21T13:56:08;4.50;;;0.70;;
41446;SDS011;27185;52.040;4.490;2022-08-21T13:58:54;6.22;;;1.10;;
41446;SDS011;27185;52.040;4.490;2022-08-21T14:01:49;5.55;;;0.88;;
41446;SDS011;27185;52.040;4.490;2022-08-21T14:05:00;5.05;;;0.70;;
41446;SDS011;27185;52.040;4.490;2022-08-21T14:07:49;6.50;;;1.00;;
41446;SDS011;27185;52.040;4.490;2022-08-21T14:10:40;4.32;;;0.80;;
41446;SDS011;27185;52.040;4.490;2022-08-21T14:16:20;3.83;;;0.70;;
41446;SDS011;27185;52.040;4.490;2022-08-21T14:19:17;6.65;;;0.93;;
41446;SDS011;27185;52.040;4.490;2022-08-21T14:25:26;6.32;;;1.00;;
41446;SDS011;27185;52.040;4.490;2022-08-21T14:31:19;6.63;;;0.60;;
41446;SDS011;27185;52.040;4.490;2022-08-21T14:34:06;4.00;;;0.70;;
41446;SDS011;27185;52.040;4.490;2022-08-21T14:36:51;6.22;;;0.90;;
41446;SDS011;27185;52.040;4.490;2022-08-21T14:39:37;5.28;;;0.77;;
41446;SDS011;27185;52.040;4.490;2022-08-21T14:42:23;6.22;;;0.85;;
41446;SDS011;27185;52.040;4.490;2022-08-21T14:45:13;4.78;;;1.17;;
41446;SDS011;27185;52.040;4.490;2022-08-21T14:48:01;9.63;;;1.70;;
41446;SDS011;27185;52.040;4.490;2022-08-21T14:50:47;5.70;;;1.10;;
41446;SDS011;27185;52.040;4.490;2022-08-21T14:53:32;4.93;;;1.05;;
41446;SDS011;27185;52.040;4.490;2022-08-21T14:56:18;6.43;;;1.33;;
41446;SDS011;27185;52.040;4.490;2022-08-21T14:59:05;10.73;;;4.90;;
41446;SDS011;27185;52.040;4.490;2022-08-21T15:01:52;8.70;;;4.07;;
41446;SDS011;27185;52.040;4.490;2022-08-21T15:04:38;17.40;;;9.48;;
41446;SDS011;27185;52.040;4.490;2022-08-21T15:07:23;6.45;;;2.08;;
41446;SDS011;27185;52.040;4.490;2022-08-21T15:10:10;8.45;;;3.08;;
41446;SDS011;27185;52.040;4.490;2022-08-21T15:12:56;7.17;;;1.50;;
41446;SDS011;27185;52.040;4.490;2022-08-21T15:15:43;6.03;;;1.35;;
41446;SDS011;27185;52.040;4.490;2022-08-21T15:18:30;5.45;;;1.45;;
41446;SDS011;27185;52.040;4.490;2022-08-21T15:21:16;7.72;;;1.40;;
41446;SDS011;27185;52.040;4.490;2022-08-21T15:24:01;6.95;;;2.20;;
41446;SDS011;27185;52.040;4.490;2022-08-21T15:26:48;7.10;;;1.58;;
41446;SDS011;27185;52.040;4.490;2022-08-21T15:29:34;5.72;;;1.20;;
41446;SDS011;27185;52.040;4.490;2022-08-21T15:32:24;7.05;;;1.27;;
41446;SDS011;27185;52.040;4.490;2022-08-21T15:35:13;5.25;;;0.93;;
41446;SDS011;27185;52.040;4.490;2022-08-21T15:37:58;7.05;;;1.30;;
41446;SDS011;27185;52.040;4.490;2022-08-21T15:40:44;4.38;;;1.13;;
41446;SDS011;27185;52.040;4.490;2022-08-21T15:43:31;6.40;;;0.90;;
41446;SDS011;27185;52.040;4.490;2022-08-21T15:46:26;6.38;;;1.05;;
41446;SDS011;27185;52.040;4.490;2022-08-21T15:49:12;5.13;;;1.20;;
41446;SDS011;27185;52.040;4.490;2022-08-21T15:51:57;3.80;;;0.85;;
41446;SDS011;27185;52.040;4.490;2022-08-21T15:54:43;3.33;;;0.80;;
41446;SDS011;27185;52.040;4.490;2022-08-21T15:57:29;5.28;;;1.02;;
41446;SDS011;27185;52.040;4.490;2022-08-21T16:00:17;6.50;;;1.30;;
41446;SDS011;27185;52.040;4.490;2022-08-21T16:03:05;4.20;;;1.00;;
41446;SDS011;27185;52.040;4.490;2022-08-21T16:05:55;7.00;;;1.08;;
41446;SDS011;27185;52.040;4.490;2022-08-21T16:08:42;5.72;;;1.00;;
41446;SDS011;27185;52.040;4.490;2022-08-21T16:11:27;7.88;;;1.38;;
41446;SDS011;27185;52.040;4.490;2022-08-21T16:14:14;6.85;;;1.52;;
41446;SDS011;27185;52.040;4.490;2022-08-21T16:17:00;10.88;;;1.38;;
41446;SDS011;27185;52.040;4.490;2022-08-21T16:19:48;5.32;;;1.00;;
41446;SDS011;27185;52.040;4.490;2022-08-21T16:22:34;6.30;;;0.90;;
41446;SDS011;27185;52.040;4.490;2022-08-21T16:25:20;6.97;;;0.90;;
41446;SDS011;27185;52.040;4.490;2022-08-21T16:28:07;5.45;;;0.95;;
41446;SDS011;27185;52.040;4.490;2022-08-21T16:30:55;6.30;;;1.20;;
41446;SDS011;27185;52.040;4.490;2022-08-21T16:33:42;7.40;;;1.20;;
41446;SDS011;27185;52.040;4.490;2022-08-21T16:36:30;7.32;;;1.17;;
41446;SDS011;27185;52.040;4.490;2022-08-21T16:39:15;5.15;;;1.00;;
41446;SDS011;27185;52.040;4.490;2022-08-21T16:42:01;5.95;;;1.02;;
41446;SDS011;27185;52.040;4.490;2022-08-21T16:44:47;5.00;;;1.35;;
41446;SDS011;27185;52.040;4.490;2022-08-21T16:47:32;4.93;;;1.00;;
41446;SDS011;27185;52.040;4.490;2022-08-21T16:50:19;5.05;;;1.10;;
41446;SDS011;27185;52.040;4.490;2022-08-21T16:53:08;4.88;;;1.13;;
41446;SDS011;27185;52.040;4.490;2022-08-21T16:55:54;5.18;;;1.08;;
41446;SDS011;27185;52.040;4.490;2022-08-21T16:58:40;5.15;;;1.10;;
41446;SDS011;27185;52.040;4.490;2022-08-21T17:01:31;11.73;;;4.22;;
41446;SDS011;27185;52.040;4.490;2022-08-21T17:07:04;6.40;;;1.65;;
41446;SDS011;27185;52.040;4.490;2022-08-21T17:09:50;5.28;;;0.95;;
41446;SDS011;27185;52.040;4.490;2022-08-21T17:12:36;6.78;;;1.40;;
41446;SDS011;27185;52.040;4.490;2022-08-21T17:15:31;4.35;;;1.17;;
41446;SDS011;27185;52.040;4.490;2022-08-21T17:18:19;5.75;;;1.05;;
41446;SDS011;27185;52.040;4.490;2022-08-21T17:21:06;6.43;;;1.20;;
41446;SDS011;27185;52.040;4.490;2022-08-21T17:23:52;4.78;;;1.00;;
41446;SDS011;27185;52.040;4.490;2022-08-21T17:26:38;7.30;;;0.80;;
41446;SDS011;27185;52.040;4.490;2022-08-21T17:29:24;5.50;;;1.23;;
41446;SDS011;27185;52.040;4.490;2022-08-21T17:32:13;7.15;;;1.00;;
41446;SDS011;27185;52.040;4.490;2022-08-21T17:34:59;8.05;;;1.17;;
41446;SDS011;27185;52.040;4.490;2022-08-21T17:37:45;7.50;;;1.10;;
41446;SDS011;27185;52.040;4.490;2022-08-21T17:40:31;6.40;;;1.10;;
41446;SDS011;27185;52.040;4.490;2022-08-21T17:43:17;7.72;;;1.40;;
41446;SDS011;27185;52.040;4.490;2022-08-21T17:46:03;4.60;;;0.98;;
41446;SDS011;27185;52.040;4.490;2022-08-21T17:48:48;5.55;;;1.20;;
41446;SDS011;27185;52.040;4.490;2022-08-21T17:51:34;7.00;;;1.10;;
41446;SDS011;27185;52.040;4.490;2022-08-21T17:54:20;6.15;;;1.05;;
41446;SDS011;27185;52.040;4.490;2022-08-21T17:57:06;4.93;;;0.85;;
41446;SDS011;27185;52.040;4.490;2022-08-21T17:59:54;4.22;;;0.63;;
41446;SDS011;27185;52.040;4.490;2022-08-21T18:02:41;7.78;;;1.33;;
41446;SDS011;27185;52.040;4.490;2022-08-21T18:08:14;4.15;;;0.73;;
41446;SDS011;27185;52.040;4.490;2022-08-21T18:11:00;4.68;;;1.27;;
41446;SDS011;27185;52.040;4.490;2022-08-21T18:13:46;4.78;;;1.02;;
41446;SDS011;27185;52.040;4.490;2022-08-21T18:16:31;5.38;;;1.30;;
41446;SDS011;27185;52.040;4.490;2022-08-21T18:19:19;5.00;;;1.00;;
41446;SDS011;27185;52.040;4.490;2022-08-21T18:22:05;5.50;;;1.40;;
41446;SDS011;27185;52.040;4.490;2022-08-21T18:24:52;5.18;;;1.00;;
41446;SDS011;27185;52.040;4.490;2022-08-21T18:27:39;9.13;;;1.95;;
41446;SDS011;27185;52.040;4.490;2022-08-21T18:30:26;31.65;;;21.30;;
41446;SDS011;27185;52.040;4.490;2022-08-21T18:33:12;64.65;;;46.58;;